Normandia, Brazil
Current Conditions -  °F | °C
As of 3:00 PM on Wednesday 26 Nov 2014 (Local Time) from SBBV Reporting Station
Rain Showers Rain Showers  
Wind Chill: 90°   Ceiling: Unl
Heat Index: 92°   Visibility: 6mi
Dew Point: 66°   Wind: 6mph
Humidity: 46%   Direction: 100°E
Pressure: 29.74"   Gusts: NA
Location:  3.89°N, 59.61°W
Report Text: SBBV 261900Z 10005KT 9999 VCSH SCT030 FEW035TCU 32/19 Q1007
Loading
Personal Weather Stations






























Interactive Weather Map New forecast layout! Learn more

10-Day Weather Forecast

Advertisements
Track Severe Weather on mobile